Dades meteomassalio
Diari Summary for Setembre 6, 2017 Units:  Metric    English   Both
« Previous Day
Next Day »
Diari Semanal Mensual Anual Personalitzat
  Maxima: Minima: Mijana:
Temperatura: 29.4 °C 15.0 °C 22.5 °C
Rosada: 15.7 °C 9.6 °C 13.4 °C
Humitat: 82 % 39 % 58 %
Velocitat del vent: 40.7 km/h 0.0 km/h 15.3 km/h
Racha vent: 40.7 km/h - -
Vent:- - SW
Pressio: 1024.9 hPa 1019.9 hPa -
Pluja: 0.0 mm    
Historical Graphs
 
 
Tabular Data for Setembre 6, 2017
Time Temperature Dew Point Pressure Wind Wind Speed Wind Gust Humidity Rainfall Rate (Hourly) solar Conditions
00:01 18.9 °C 14.3 °C 1022.6 hPa Calm     75 % 0.0 mm 0.0 W/m2 CLR
00:06 18.9 °C 14.6 °C 1022.6 hPa Calm     76 % 0.0 mm 0.0 W/m2 CLR
00:11 18.9 °C 14.6 °C 1022.6 hPa Calm     76 % 0.0 mm 0.0 W/m2 CLR
00:16 18.9 °C 14.6 °C 1022.6 hPa Calm     76 % 0.0 mm 0.0 W/m2 CLR
00:21 18.3 °C 14.2 °C 1022.2 hPa Calm     77 % 0.0 mm 0.0 W/m2 CLR
00:26 18.3 °C 14.2 °C 1022.6 hPa Calm     77 % 0.0 mm 0.0 W/m2 CLR
00:31 18.3 °C 14.2 °C 1022.6 hPa Calm     77 % 0.0 mm 0.0 W/m2 CLR
00:36 18.3 °C 14.2 °C 1022.6 hPa Calm     77 % 0.0 mm 0.0 W/m2 CLR
00:41 18.3 °C 14.4 °C 1022.2 hPa Calm     78 % 0.0 mm 0.0 W/m2 CLR
00:46 18.3 °C 14.4 °C 1022.6 hPa Calm     78 % 0.0 mm 0.0 W/m2 CLR
00:51 18.3 °C 14.6 °C 1022.6 hPa Calm     79 % 0.0 mm 0.0 W/m2 CLR
00:56 18.3 °C 14.6 °C 1022.2 hPa Calm     79 % 0.0 mm 0.0 W/m2 CLR
01:01 18.3 °C 14.6 °C 1022.2 hPa Calm     79 % 0.0 mm 0.0 W/m2 CLR
01:06 18.3 °C 14.8 °C 1022.6 hPa Calm     80 % 0.0 mm 0.0 W/m2 CLR
01:11 18.3 °C 14.8 °C 1022.6 hPa Calm     80 % 0.0 mm 0.0 W/m2 CLR
01:16 18.3 °C 15.0 °C 1022.6 hPa Calm     81 % 0.0 mm 0.0 W/m2 CLR
01:21 18.3 °C 15.0 °C 1022.6 hPa Calm     81 % 0.0 mm 0.0 W/m2 CLR
01:26 18.9 °C 15.6 °C 1022.6 hPa Calm     81 % 0.0 mm 0.0 W/m2 CLR
01:31 18.9 °C 15.6 °C 1022.9 hPa Calm     81 % 0.0 mm 0.0 W/m2 CLR
01:36 18.9 °C 15.7 °C 1022.9 hPa Calm     82 % 0.0 mm 0.0 W/m2 CLR
01:46 18.9 °C 14.3 °C 1022.9 hPa West 16.7 km/h 16.7 km/h 75 % 0.0 mm 0.0 W/m2 CLR
01:51 18.9 °C 13.5 °C 1022.9 hPa WSW 11.1 km/h 11.1 km/h 71 % 0.0 mm 0.0 W/m2 CLR
01:56 18.9 °C 13.3 °C 1022.9 hPa SSW 5.6 km/h 5.6 km/h 70 % 0.0 mm 0.0 W/m2 CLR
02:01 19.4 °C 13.8 °C 1022.9 hPa Calm     70 % 0.0 mm 0.0 W/m2 CLR
02:06 20.0 °C 14.1 °C 1022.9 hPa Calm     69 % 0.0 mm 0.0 W/m2 CLR
02:11 20.0 °C 14.3 °C 1022.9 hPa Calm     70 % 0.0 mm 0.0 W/m2 CLR
02:16 20.0 °C 14.3 °C 1022.9 hPa Calm     70 % 0.0 mm 0.0 W/m2 CLR
02:21 20.6 °C 14.9 °C 1022.9 hPa Calm     70 % 0.0 mm 0.0 W/m2 CLR
02:26 20.6 °C 15.1 °C 1022.9 hPa SW 6.4 km/h 6.4 km/h 71 % 0.0 mm 0.0 W/m2 CLR
02:31 20.0 °C 14.6 °C 1023.2 hPa SW 9.7 km/h 9.7 km/h 71 % 0.0 mm 0.0 W/m2 CLR
02:36 20.0 °C 14.6 °C 1023.2 hPa SSW 5.6 km/h 5.6 km/h 71 % 0.0 mm 0.0 W/m2 CLR
02:41 19.4 °C 14.3 °C 1023.2 hPa Calm     72 % 0.0 mm 0.0 W/m2 CLR
02:46 19.4 °C 14.3 °C 1023.2 hPa Calm     72 % 0.0 mm 0.0 W/m2 CLR
02:51 19.4 °C 14.3 °C 1023.2 hPa SSW 5.6 km/h 5.6 km/h 72 % 0.0 mm 0.0 W/m2 CLR
02:56 18.9 °C 13.7 °C 1023.2 hPa South 1.9 km/h   72 % 0.0 mm 0.0 W/m2 CLR
03:01 18.3 °C 13.4 °C 1023.6 hPa Calm     73 % 0.0 mm 0.0 W/m2 CLR
03:06 18.3 °C 13.4 °C 1023.6 hPa SSE 9.3 km/h   73 % 0.0 mm 0.0 W/m2 CLR
03:11 18.3 °C 13.4 °C 1023.6 hPa SSW 16.7 km/h 16.7 km/h 73 % 0.0 mm 0.0 W/m2 CLR
03:17 18.3 °C 13.2 °C 1023.6 hPa SSW 14.8 km/h 14.8 km/h 72 % 0.0 mm 0.0 W/m2 CLR
03:22 18.9 °C 13.5 °C 1023.6 hPa South 11.3 km/h 11.3 km/h 71 % 0.0 mm 0.0 W/m2 CLR
03:27 19.4 °C 13.8 °C 1023.6 hPa SSW 11.1 km/h 11.1 km/h 70 % 0.0 mm 0.0 W/m2 CLR
03:32 19.4 °C 13.8 °C 1023.6 hPa SSW 11.1 km/h 11.1 km/h 70 % 0.0 mm 0.0 W/m2 CLR
03:37 20.0 °C 14.1 °C 1023.6 hPa South 13.0 km/h 13.0 km/h 69 % 0.0 mm 0.0 W/m2 CLR
03:42 20.0 °C 14.1 °C 1023.6 hPa SSW 11.1 km/h 11.1 km/h 69 % 0.0 mm 0.0 W/m2 CLR
03:47 20.0 °C 14.1 °C 1023.6 hPa South 5.6 km/h 5.6 km/h 69 % 0.0 mm 0.0 W/m2 CLR
03:52 20.0 °C 14.1 °C 1023.6 hPa South 5.6 km/h   69 % 0.0 mm 0.0 W/m2 CLR
03:57 20.0 °C 13.9 °C 1023.9 hPa SSW 8.0 km/h 8.0 km/h 68 % 0.0 mm 0.0 W/m2 CLR
04:02 19.4 °C 13.4 °C 1023.6 hPa South 13.0 km/h 13.0 km/h 68 % 0.0 mm 0.0 W/m2 CLR
04:07 19.4 °C 13.4 °C 1023.6 hPa South 14.8 km/h 14.8 km/h 68 % 0.0 mm 0.0 W/m2 CLR
04:12 20.0 °C 13.7 °C 1023.6 hPa SE 11.1 km/h 11.1 km/h 67 % 0.0 mm 0.0 W/m2 CLR
04:17 19.4 °C 13.2 °C 1023.6 hPa SSW 9.7 km/h 9.7 km/h 67 % 0.0 mm 0.0 W/m2 CLR
04:22 19.4 °C 13.2 °C 1023.6 hPa SSE 8.0 km/h 8.0 km/h 67 % 0.0 mm 0.0 W/m2 CLR
04:27 19.4 °C 13.2 °C 1023.6 hPa South 7.4 km/h 7.4 km/h 67 % 0.0 mm 0.0 W/m2 CLR
04:32 18.9 °C 12.6 °C 1023.6 hPa South 11.1 km/h 11.1 km/h 67 % 0.0 mm 0.0 W/m2 CLR
04:37 18.9 °C 12.8 °C 1023.6 hPa SSE 8.0 km/h 8.0 km/h 68 % 0.0 mm 0.0 W/m2 CLR
04:42 18.9 °C 12.8 °C 1023.6 hPa South 9.3 km/h 9.3 km/h 68 % 0.0 mm 0.0 W/m2 CLR
04:47 18.9 °C 12.8 °C 1023.6 hPa SSE 9.3 km/h 9.3 km/h 68 % 0.0 mm 0.0 W/m2 CLR
04:52 18.9 °C 12.8 °C 1023.6 hPa South 11.1 km/h 11.1 km/h 68 % 0.0 mm 0.0 W/m2 CLR
04:57 18.9 °C 12.8 °C 1023.6 hPa South 9.3 km/h 9.3 km/h 68 % 0.0 mm 0.0 W/m2 CLR
05:02 18.9 °C 12.8 °C 1023.6 hPa South 11.1 km/h 11.1 km/h 68 % 0.0 mm 0.0 W/m2 CLR
05:07 18.9 °C 12.8 °C 1023.6 hPa SSW 11.3 km/h 11.3 km/h 68 % 0.0 mm 0.0 W/m2 CLR
05:12 18.9 °C 12.6 °C 1023.6 hPa SSW 13.0 km/h 13.0 km/h 67 % 0.0 mm 0.0 W/m2 CLR
05:17 18.9 °C 12.6 °C 1023.6 hPa South 11.3 km/h 11.3 km/h 67 % 0.0 mm 0.0 W/m2 CLR
05:22 18.9 °C 12.6 °C 1023.6 hPa South 11.1 km/h 11.1 km/h 67 % 0.0 mm 0.0 W/m2 CLR
05:27 18.9 °C 12.6 °C 1023.6 hPa Calm     67 % 0.0 mm 0.0 W/m2 CLR
05:32 18.9 °C 12.6 °C 1023.6 hPa South 8.0 km/h 8.0 km/h 67 % 0.0 mm 0.0 W/m2 CLR
05:37 18.9 °C 12.6 °C 1023.6 hPa SSW 6.4 km/h 6.4 km/h 67 % 0.0 mm 0.0 W/m2 CLR
05:42 18.9 °C 12.6 °C 1023.6 hPa Calm     67 % 0.0 mm 0.0 W/m2 CLR
05:47 18.3 °C 12.1 °C 1023.6 hPa South 3.7 km/h 3.7 km/h 67 % 0.0 mm 0.0 W/m2 CLR
05:52 18.3 °C 12.1 °C 1023.6 hPa South 1.6 km/h 1.6 km/h 67 % 0.0 mm 0.0 W/m2 CLR
05:57 18.3 °C 12.1 °C 1023.6 hPa SSE 13.0 km/h 13.0 km/h 67 % 0.0 mm 0.0 W/m2 CLR
06:02 18.3 °C 12.1 °C 1023.6 hPa South 1.9 km/h   67 % 0.0 mm 0.0 W/m2 CLR
06:07 18.3 °C 12.1 °C 1023.6 hPa South 11.1 km/h 11.1 km/h 67 % 0.0 mm 0.0 W/m2 CLR
06:12 18.3 °C 12.1 °C 1023.6 hPa South 11.1 km/h 11.1 km/h 67 % 0.0 mm 0.0 W/m2 CLR
06:17 18.3 °C 12.1 °C 1023.6 hPa SSE 11.1 km/h 11.1 km/h 67 % 0.0 mm 0.0 W/m2 CLR
06:22 17.8 °C 11.6 °C 1023.9 hPa Calm     67 % 0.0 mm 0.0 W/m2 CLR
06:27 17.8 °C 11.6 °C 1023.9 hPa SSW 3.7 km/h 3.7 km/h 67 % 0.0 mm 0.0 W/m2 CLR
06:32 17.8 °C 11.8 °C 1023.9 hPa Calm     68 % 0.0 mm 0.0 W/m2 CLR
06:37 17.8 °C 11.8 °C 1023.9 hPa Calm     68 % 0.0 mm 0.0 W/m2 CLR
06:42 17.2 °C 11.3 °C 1023.9 hPa South 14.8 km/h 14.8 km/h 68 % 0.0 mm 0.0 W/m2 CLR
06:47 17.2 °C 11.3 °C 1023.9 hPa South 5.6 km/h 5.6 km/h 68 % 0.0 mm 0.0 W/m2 CLR
06:52 16.7 °C 10.7 °C 1023.9 hPa Calm     68 % 0.0 mm 0.0 W/m2 CLR
06:57 16.7 °C 10.7 °C 1023.9 hPa South 9.3 km/h 9.3 km/h 68 % 0.0 mm 0.0 W/m2 CLR
07:02 16.7 °C 10.9 °C 1023.9 hPa SSE 7.4 km/h 7.4 km/h 69 % 0.0 mm 0.0 W/m2 CLR
07:07 16.1 °C 10.4 °C 1023.9 hPa South 13.0 km/h 13.0 km/h 69 % 0.0 mm 0.0 W/m2 CLR
07:12 16.1 °C 10.4 °C 1023.9 hPa Calm     69 % 0.0 mm 0.0 W/m2 CLR
07:17 16.1 °C 10.4 °C 1023.9 hPa South 1.6 km/h   69 % 0.0 mm 0.0 W/m2 CLR
07:22 15.6 °C 9.9 °C 1023.9 hPa South 5.6 km/h   69 % 0.0 mm 0.0 W/m2 OVC
07:27 15.6 °C 9.9 °C 1023.9 hPa Calm     69 % 0.0 mm 0.0 W/m2 OVC
07:32 15.6 °C 10.1 °C 1024.3 hPa Calm     70 % 0.0 mm 5.0 W/m2 OVC
07:37 15.0 °C 9.6 °C 1024.3 hPa SSE 8.0 km/h 8.0 km/h 70 % 0.0 mm 7.0 W/m2 BKN
07:42 15.0 °C 9.6 °C 1024.3 hPa SSE 8.0 km/h 8.0 km/h 70 % 0.0 mm 11.0 W/m2 BKN
07:47 15.0 °C 9.8 °C 1024.3 hPa Calm     71 % 0.0 mm 14.0 W/m2 BKN
07:52 15.0 °C 9.8 °C 1024.3 hPa South 6.4 km/h 6.4 km/h 71 % 0.0 mm 18.0 W/m2 BKN
07:57 15.0 °C 9.8 °C 1024.3 hPa South 14.8 km/h 14.8 km/h 71 % 0.0 mm 23.0 W/m2 BKN
08:02 15.6 °C 10.1 °C 1024.3 hPa South 9.3 km/h 9.3 km/h 70 % 0.0 mm 33.0 W/m2 BKN
08:07 16.1 °C 10.8 °C 1024.3 hPa South 7.4 km/h 7.4 km/h 71 % 0.0 mm 49.0 W/m2 BKN
08:12 16.7 °C 11.2 °C 1024.3 hPa SSW 9.3 km/h 9.3 km/h 70 % 0.0 mm 62.0 W/m2 SCT
08:17 17.2 °C 11.7 °C 1024.3 hPa SSW 9.7 km/h 9.7 km/h 70 % 0.0 mm 81.0 W/m2 FEW
08:22 18.3 °C 12.3 °C 1024.3 hPa SSW 16.7 km/h 16.7 km/h 68 % 0.0 mm 102.0 W/m2 CLR
08:27 18.3 °C 12.3 °C 1024.3 hPa SSW 14.8 km/h 14.8 km/h 68 % 0.0 mm 107.0 W/m2 CLR
08:32 18.9 °C 12.8 °C 1024.3 hPa SSW 14.8 km/h 14.8 km/h 68 % 0.0 mm 118.0 W/m2 CLR
08:37 18.9 °C 12.6 °C 1024.3 hPa SSW 18.5 km/h 18.5 km/h 67 % 0.0 mm 162.0 W/m2 CLR
08:42 19.4 °C 13.2 °C 1024.6 hPa SSW 13.0 km/h 13.0 km/h 67 % 0.0 mm 98.0 W/m2 CLR
08:47 20.0 °C 13.4 °C 1024.6 hPa SSW 13.0 km/h 13.0 km/h 66 % 0.0 mm 199.0 W/m2 CLR
08:52 20.0 °C 13.2 °C 1024.6 hPa SSW 18.5 km/h 18.5 km/h 65 % 0.0 mm 237.0 W/m2 CLR
08:57 20.0 °C 13.2 °C 1024.6 hPa South 20.9 km/h 20.9 km/h 65 % 0.0 mm 206.0 W/m2 CLR
09:07 20.6 °C 13.7 °C 1024.6 hPa South 25.9 km/h 25.9 km/h 65 % 0.0 mm 165.0 W/m2 CLR
09:12 20.6 °C 14.0 °C 1024.6 hPa South 22.2 km/h 22.2 km/h 66 % 0.0 mm 232.0 W/m2 CLR
09:17 20.6 °C 13.7 °C 1024.6 hPa South 22.5 km/h 22.5 km/h 65 % 0.0 mm 272.0 W/m2 CLR
09:22 20.6 °C 13.7 °C 1024.6 hPa SW 22.5 km/h 22.5 km/h 65 % 0.0 mm 304.0 W/m2 CLR
09:27 20.6 °C 13.7 °C 1024.6 hPa SSW 24.1 km/h 24.1 km/h 65 % 0.0 mm 308.0 W/m2 CLR
09:32 20.6 °C 13.7 °C 1024.6 hPa SSW 18.5 km/h 18.5 km/h 65 % 0.0 mm 322.0 W/m2 CLR
09:37 20.6 °C 13.7 °C 1024.6 hPa South 17.7 km/h 17.7 km/h 65 % 0.0 mm 334.0 W/m2 CLR
09:42 20.6 °C 13.7 °C 1024.6 hPa SSW 24.1 km/h 24.1 km/h 65 % 0.0 mm 346.0 W/m2 CLR
09:47 20.6 °C 13.7 °C 1024.6 hPa South 24.1 km/h 24.1 km/h 65 % 0.0 mm 362.0 W/m2 CLR
09:52 21.1 °C 14.3 °C 1024.6 hPa SSW 24.1 km/h 24.1 km/h 65 % 0.0 mm 374.0 W/m2 CLR
09:57 21.1 °C 14.3 °C 1024.6 hPa SW 27.8 km/h 27.8 km/h 65 % 0.0 mm 385.0 W/m2 CLR
10:02 21.1 °C 14.3 °C 1024.6 hPa SSW 22.2 km/h 22.2 km/h 65 % 0.0 mm 397.0 W/m2 CLR
10:07 21.1 °C 14.1 °C 1024.6 hPa South 16.7 km/h 16.7 km/h 64 % 0.0 mm 410.0 W/m2 CLR
10:12 21.1 °C 13.8 °C 1024.6 hPa SSW 25.9 km/h 25.9 km/h 63 % 0.0 mm 427.0 W/m2 CLR
10:17 21.1 °C 13.8 °C 1024.6 hPa SSW 27.8 km/h 27.8 km/h 63 % 0.0 mm 441.0 W/m2 CLR
10:22 21.7 °C 14.3 °C 1024.6 hPa WSW 24.1 km/h 24.1 km/h 63 % 0.0 mm 454.0 W/m2 CLR
10:28 21.7 °C 14.1 °C 1024.6 hPa SSW 24.1 km/h 24.1 km/h 62 % 0.0 mm 466.0 W/m2 CLR
10:33 21.7 °C 14.3 °C 1024.9 hPa SW 22.5 km/h 22.5 km/h 63 % 0.0 mm 482.0 W/m2 CLR
10:38 21.7 °C 14.1 °C 1024.6 hPa SW 27.4 km/h 27.4 km/h 62 % 0.0 mm 494.0 W/m2 CLR
10:43 21.7 °C 13.8 °C 1024.6 hPa WSW 20.4 km/h 20.4 km/h 61 % 0.0 mm 450.0 W/m2 CLR
10:48 22.2 °C 14.3 °C 1024.6 hPa SW 29.6 km/h 29.6 km/h 61 % 0.0 mm 519.0 W/m2 CLR
10:53 22.2 °C 14.3 °C 1024.6 hPa SSW 14.8 km/h 16.6 km/h 61 % 0.0 mm 533.0 W/m2 CLR
10:58 22.2 °C 14.3 °C 1024.6 hPa South 18.5 km/h 18.5 km/h 61 % 0.0 mm 541.0 W/m2 CLR
11:03 22.2 °C 14.1 °C 1024.6 hPa SSW 22.2 km/h 22.2 km/h 60 % 0.0 mm 557.0 W/m2 CLR
11:08 22.8 °C 14.9 °C 1024.6 hPa SSW 22.5 km/h 22.5 km/h 61 % 0.0 mm 570.0 W/m2 CLR
11:13 22.8 °C 14.6 °C 1024.6 hPa SSW 20.4 km/h 20.4 km/h 60 % 0.0 mm 582.0 W/m2 CLR
11:23 23.3 °C 15.1 °C 1024.3 hPa South 29.0 km/h 29.0 km/h 60 % 0.0 mm 606.0 W/m2 CLR
11:28 23.3 °C 14.9 °C 1024.6 hPa SSW 20.4 km/h 20.4 km/h 59 % 0.0 mm 615.0 W/m2 CLR
11:33 23.3 °C 14.9 °C 1024.6 hPa South 24.1 km/h 24.1 km/h 59 % 0.0 mm 617.0 W/m2 CLR
11:38 23.3 °C 14.9 °C 1024.3 hPa SW 25.9 km/h 25.9 km/h 59 % 0.0 mm 526.0 W/m2 CLR
11:43 23.3 °C 14.6 °C 1024.3 hPa WSW 18.5 km/h 18.5 km/h 58 % 0.0 mm 633.0 W/m2 CLR
11:48 23.3 °C 14.3 °C 1024.3 hPa SSW 22.5 km/h 22.5 km/h 57 % 0.0 mm 663.0 W/m2 CLR
11:53 23.9 °C 14.8 °C 1024.3 hPa WSW 29.6 km/h 29.6 km/h 57 % 0.0 mm 666.0 W/m2 CLR
11:58 24.4 °C 15.4 °C 1024.3 hPa SSW 20.4 km/h 20.4 km/h 57 % 0.0 mm 677.0 W/m2 CLR
12:03 24.4 °C 15.1 °C 1023.9 hPa SW 25.9 km/h 25.9 km/h 56 % 0.0 mm 686.0 W/m2 CLR
12:08 24.4 °C 14.8 °C 1023.9 hPa SW 18.5 km/h 18.5 km/h 55 % 0.0 mm 694.0 W/m2 CLR
12:13 24.4 °C 15.1 °C 1023.9 hPa WSW 14.8 km/h 14.8 km/h 56 % 0.0 mm 700.0 W/m2 CLR
12:18 25.0 °C 15.1 °C 1023.9 hPa South 18.5 km/h 18.5 km/h 54 % 0.0 mm 710.0 W/m2 CLR
12:23 25.0 °C 15.1 °C 1023.9 hPa SSW 9.3 km/h 9.3 km/h 54 % 0.0 mm 717.0 W/m2 CLR
12:28 25.0 °C 15.1 °C 1023.9 hPa WSW 19.3 km/h 19.3 km/h 54 % 0.0 mm 726.0 W/m2 CLR
12:38 25.6 °C 15.3 °C 1023.9 hPa WSW 20.4 km/h 20.4 km/h 53 % 0.0 mm 738.0 W/m2 CLR
12:43 25.6 °C 15.3 °C 1023.6 hPa SW 18.5 km/h 18.5 km/h 53 % 0.0 mm 747.0 W/m2 CLR
12:48 25.6 °C 14.9 °C 1023.6 hPa SSW 9.3 km/h 9.3 km/h 52 % 0.0 mm 754.0 W/m2 CLR
12:53 26.1 °C 15.5 °C 1023.6 hPa SW 18.5 km/h 18.5 km/h 52 % 0.0 mm 761.0 W/m2 CLR
12:58 26.1 °C 14.9 °C 1023.6 hPa West 18.5 km/h 18.5 km/h 50 % 0.0 mm 763.0 W/m2 CLR
13:08 26.7 °C 15.7 °C 1023.6 hPa SW 25.9 km/h 25.9 km/h 51 % 0.0 mm 775.0 W/m2 CLR
13:13 26.7 °C 15.4 °C 1023.2 hPa SSW 24.1 km/h 24.1 km/h 50 % 0.0 mm 782.0 W/m2 CLR
13:18 26.7 °C 15.4 °C 1023.2 hPa SW 18.5 km/h 18.5 km/h 50 % 0.0 mm 782.0 W/m2 CLR
13:23 26.7 °C 15.7 °C 1023.2 hPa WSW 4.8 km/h 4.8 km/h 51 % 0.0 mm 768.0 W/m2 CLR
13:33 27.2 °C 15.6 °C 1023.2 hPa SSE 16.7 km/h 16.7 km/h 49 % 0.0 mm 786.0 W/m2 CLR
13:38 27.2 °C 15.3 °C 1022.9 hPa South 11.1 km/h 11.1 km/h 48 % 0.0 mm 784.0 W/m2 CLR
13:43 27.2 °C 15.6 °C 1022.9 hPa WSW 6.4 km/h 6.4 km/h 49 % 0.0 mm 782.0 W/m2 CLR
13:44 27.2 °C 15.3 °C 1022.9 hPa SSW 24.1 km/h 24.1 km/h 48 % 0.0 mm 780.0 W/m2 CLR
13:49 27.2 °C 15.3 °C 1022.9 hPa West 18.5 km/h 18.5 km/h 48 % 0.0 mm 780.0 W/m2 CLR
13:54 27.2 °C 15.3 °C 1022.9 hPa West 18.5 km/h 18.5 km/h 48 % 0.0 mm 782.0 W/m2 CLR
13:59 27.2 °C 15.3 °C 1022.9 hPa Calm   0.5 km/h 48 % 0.0 mm 784.0 W/m2 CLR
14:04 27.8 °C 15.1 °C 1022.9 hPa West 18.5 km/h 18.5 km/h 46 % 0.0 mm 782.0 W/m2 CLR
14:09 27.2 °C 14.6 °C 1022.6 hPa WSW 29.6 km/h 29.6 km/h 46 % 0.0 mm 784.0 W/m2 CLR
14:14 27.8 °C 15.4 °C 1022.6 hPa SW 18.5 km/h 18.5 km/h 47 % 0.0 mm 786.0 W/m2 CLR
14:19 27.8 °C 15.4 °C 1022.6 hPa Calm     47 % 0.0 mm 788.0 W/m2 CLR
14:24 28.3 °C 15.6 °C 1022.6 hPa WSW 20.4 km/h 20.4 km/h 46 % 0.0 mm 786.0 W/m2 CLR
14:25 28.3 °C 15.3 °C 1022.6 hPa WNW 20.4 km/h 20.4 km/h 45 % 0.0 mm 786.0 W/m2 CLR
14:30 27.8 °C 14.8 °C 1022.6 hPa SW 18.5 km/h 18.5 km/h 45 % 0.0 mm 782.0 W/m2 CLR
14:35 27.8 °C 14.4 °C 1022.2 hPa SSW 18.5 km/h 18.5 km/h 44 % 0.0 mm 779.0 W/m2 CLR
14:40 28.3 °C 14.9 °C 1022.2 hPa West 5.6 km/h 5.6 km/h 44 % 0.0 mm 773.0 W/m2 CLR
14:45 28.3 °C 14.9 °C 1022.2 hPa South 11.3 km/h 11.3 km/h 44 % 0.0 mm 772.0 W/m2 CLR
14:50 28.3 °C 14.6 °C 1022.2 hPa West 18.5 km/h 18.5 km/h 43 % 0.0 mm 765.0 W/m2 CLR
14:55 28.9 °C 15.1 °C 1022.2 hPa SW 18.5 km/h 18.5 km/h 43 % 0.0 mm 765.0 W/m2 CLR
15:00 28.3 °C 15.3 °C 1021.9 hPa West 20.9 km/h 20.9 km/h 45 % 0.0 mm 758.0 W/m2 CLR
15:05 28.3 °C 15.3 °C 1021.9 hPa WSW 22.5 km/h 22.5 km/h 45 % 0.0 mm 752.0 W/m2 CLR
15:06 28.3 °C 14.9 °C 1021.9 hPa WSW 22.2 km/h 22.2 km/h 44 % 0.0 mm 751.0 W/m2 CLR
15:11 28.3 °C 14.9 °C 1021.9 hPa WSW 13.0 km/h 13.0 km/h 44 % 0.0 mm 742.0 W/m2 CLR
15:16 28.3 °C 14.2 °C 1021.9 hPa West 13.0 km/h 13.0 km/h 42 % 0.0 mm 738.0 W/m2 CLR
15:21 28.3 °C 14.2 °C 1021.9 hPa WSW 16.7 km/h 16.7 km/h 42 % 0.0 mm 735.0 W/m2 CLR
15:22 28.3 °C 14.6 °C 1021.9 hPa WSW 16.7 km/h 16.7 km/h 43 % 0.0 mm 735.0 W/m2 CLR
15:27 28.9 °C 14.7 °C 1021.9 hPa WSW 11.3 km/h 11.3 km/h 42 % 0.0 mm 728.0 W/m2 CLR
15:32 28.9 °C 14.7 °C 1021.6 hPa WSW 5.6 km/h 5.6 km/h 42 % 0.0 mm 717.0 W/m2 CLR
15:37 28.3 °C 14.6 °C 1021.6 hPa West 18.5 km/h 18.5 km/h 43 % 0.0 mm 708.0 W/m2 CLR
15:42 28.9 °C 14.7 °C 1021.6 hPa WSW 20.4 km/h 20.4 km/h 42 % 0.0 mm 703.0 W/m2 CLR
15:47 28.3 °C 14.2 °C 1021.6 hPa WSW 18.5 km/h 18.5 km/h 42 % 0.0 mm 694.0 W/m2 CLR
15:52 28.3 °C 14.2 °C 1021.6 hPa SW 18.5 km/h 18.5 km/h 42 % 0.0 mm 686.0 W/m2 CLR
15:57 28.3 °C 14.2 °C 1021.6 hPa West 16.1 km/h 16.1 km/h 42 % 0.0 mm 675.0 W/m2 CLR
16:02 28.3 °C 13.8 °C 1021.2 hPa West 25.9 km/h 25.9 km/h 41 % 0.0 mm 666.0 W/m2 CLR
16:07 28.9 °C 14.3 °C 1021.2 hPa WSW 17.7 km/h 17.7 km/h 41 % 0.0 mm 661.0 W/m2 CLR
16:12 28.9 °C 13.9 °C 1021.2 hPa SSW 5.6 km/h 5.6 km/h 40 % 0.0 mm 645.0 W/m2 CLR
16:17 29.4 °C 14.4 °C 1021.2 hPa WSW 9.7 km/h 9.7 km/h 40 % 0.0 mm 636.0 W/m2 CLR
16:22 29.4 °C 14.4 °C 1020.9 hPa SW 24.1 km/h 24.1 km/h 40 % 0.0 mm 626.0 W/m2 CLR
16:27 28.9 °C 13.9 °C 1020.9 hPa West 24.1 km/h 24.1 km/h 40 % 0.0 mm 621.0 W/m2 CLR
16:32 28.9 °C 13.9 °C 1020.9 hPa SSW 19.3 km/h 19.3 km/h 40 % 0.0 mm 606.0 W/m2 CLR
16:37 28.9 °C 13.6 °C 1020.9 hPa West 20.4 km/h 20.4 km/h 39 % 0.0 mm 592.0 W/m2 CLR
16:42 28.9 °C 13.9 °C 1020.9 hPa WNW 16.1 km/h 16.1 km/h 40 % 0.0 mm 580.0 W/m2 CLR
16:47 28.9 °C 13.9 °C 1020.5 hPa SW 20.4 km/h 20.4 km/h 40 % 0.0 mm 575.0 W/m2 CLR
16:52 28.9 °C 13.9 °C 1020.5 hPa Calm     40 % 0.0 mm 555.0 W/m2 CLR
16:57 28.9 °C 13.9 °C 1020.5 hPa West 22.2 km/h 22.2 km/h 40 % 0.0 mm 543.0 W/m2 CLR
17:07 29.4 °C 14.4 °C 1020.5 hPa SW 17.7 km/h 17.7 km/h 40 % 0.0 mm 510.0 W/m2 CLR
17:09 28.9 °C 13.9 °C 1020.5 hPa WSW 18.5 km/h 18.5 km/h 40 % 0.0 mm 508.0 W/m2 CLR
17:14 29.4 °C 14.4 °C 1020.2 hPa WSW 17.7 km/h 17.7 km/h 40 % 0.0 mm 492.0 W/m2 CLR
17:19 29.4 °C 14.4 °C 1020.2 hPa SW 16.7 km/h 16.7 km/h 40 % 0.0 mm 482.0 W/m2 CLR
17:24 29.4 °C 14.4 °C 1020.2 hPa South 14.8 km/h   40 % 0.0 mm 464.0 W/m2 CLR
17:29 29.4 °C 14.4 °C 1020.2 hPa Calm     40 % 0.0 mm 450.0 W/m2 CLR
17:34 29.4 °C 14.8 °C 1020.2 hPa SW 13.0 km/h 13.0 km/h 41 % 0.0 mm 438.0 W/m2 CLR
17:44 29.4 °C 14.4 °C 1020.2 hPa WSW 18.5 km/h 18.5 km/h 40 % 0.0 mm 406.0 W/m2 CLR
17:49 28.9 °C 13.9 °C 1019.9 hPa WSW 7.4 km/h 7.4 km/h 40 % 0.0 mm 392.0 W/m2 CLR
17:54 28.3 °C 13.4 °C 1019.9 hPa SW 5.6 km/h 5.6 km/h 40 % 0.0 mm 376.0 W/m2 CLR
17:59 28.3 °C 13.4 °C 1019.9 hPa Calm     40 % 0.0 mm 362.0 W/m2 CLR
18:04 28.9 °C 14.3 °C 1019.9 hPa West 5.6 km/h 5.6 km/h 41 % 0.0 mm 345.0 W/m2 CLR
18:09 28.9 °C 14.3 °C 1019.9 hPa SSW 7.4 km/h 7.4 km/h 41 % 0.0 mm 332.0 W/m2 CLR
18:14 28.3 °C 13.8 °C 1019.9 hPa WSW 18.5 km/h 18.5 km/h 41 % 0.0 mm 316.0 W/m2 CLR
18:19 28.3 °C 14.2 °C 1019.9 hPa West 9.7 km/h 9.7 km/h 42 % 0.0 mm 302.0 W/m2 CLR
18:24 28.3 °C 14.2 °C 1019.9 hPa WSW 24.1 km/h 24.1 km/h 42 % 0.0 mm 292.0 W/m2 CLR
18:25 28.3 °C 13.8 °C 1019.9 hPa West 24.1 km/h 24.1 km/h 41 % 0.0 mm 281.0 W/m2 CLR
18:30 28.3 °C 14.6 °C 1019.9 hPa WSW 18.5 km/h 18.5 km/h 43 % 0.0 mm 269.0 W/m2 CLR
18:35 28.3 °C 14.6 °C 1019.9 hPa WSW 24.1 km/h 24.1 km/h 43 % 0.0 mm 253.0 W/m2 CLR
18:40 28.3 °C 14.6 °C 1019.9 hPa SW 22.2 km/h 22.2 km/h 43 % 0.0 mm 237.0 W/m2 CLR
18:45 27.8 °C 14.1 °C 1019.9 hPa SW 18.5 km/h 18.5 km/h 43 % 0.0 mm 227.0 W/m2 CLR
18:50 27.8 °C 14.1 °C 1019.9 hPa SW 25.9 km/h 25.9 km/h 43 % 0.0 mm 209.0 W/m2 CLR
18:56 27.8 °C 14.1 °C 1019.9 hPa WSW 27.8 km/h 27.8 km/h 43 % 0.0 mm 193.0 W/m2 CLR
19:01 27.2 °C 13.6 °C 1019.9 hPa WSW 18.5 km/h 18.5 km/h 43 % 0.0 mm 174.0 W/m2 CLR
19:06 27.2 °C 13.6 °C 1020.2 hPa West 22.5 km/h 22.5 km/h 43 % 0.0 mm 158.0 W/m2 CLR
19:11 27.2 °C 13.9 °C 1020.2 hPa WSW 24.1 km/h 24.1 km/h 44 % 0.0 mm 142.0 W/m2 CLR
19:16 26.7 °C 13.4 °C 1020.2 hPa SW 27.8 km/h 27.8 km/h 44 % 0.0 mm 127.0 W/m2 CLR
19:21 26.7 °C 13.4 °C 1020.2 hPa WSW 29.6 km/h 29.6 km/h 44 % 0.0 mm 109.0 W/m2 CLR
19:26 26.7 °C 13.7 °C 1020.2 hPa West 22.2 km/h 22.2 km/h 45 % 0.0 mm 95.0 W/m2 CLR
19:31 26.7 °C 13.7 °C 1020.2 hPa WSW 29.6 km/h 29.6 km/h 45 % 0.0 mm 83.0 W/m2 FEW
19:36 26.1 °C 13.2 °C 1019.9 hPa West 18.5 km/h 18.5 km/h 45 % 0.0 mm 70.0 W/m2 FEW
19:41 26.1 °C 12.9 °C 1020.2 hPa WSW 31.5 km/h 31.5 km/h 44 % 0.0 mm 53.0 W/m2 SCT
19:46 26.1 °C 12.9 °C 1020.2 hPa WSW 31.5 km/h 31.5 km/h 44 % 0.0 mm 46.0 W/m2 SCT
19:51 25.6 °C 12.4 °C 1020.2 hPa WSW 22.2 km/h 22.5 km/h 44 % 0.0 mm 37.0 W/m2 BKN
19:56 25.6 °C 12.4 °C 1020.2 hPa WSW 25.9 km/h 25.9 km/h 44 % 0.0 mm 30.0 W/m2 BKN
20:01 25.0 °C 11.9 °C 1020.2 hPa WSW 20.4 km/h 20.4 km/h 44 % 0.0 mm 25.0 W/m2 BKN
20:06 25.0 °C 11.9 °C 1020.2 hPa WSW 22.2 km/h 22.2 km/h 44 % 0.0 mm 18.0 W/m2 BKN
20:11 25.0 °C 12.2 °C 1020.5 hPa WSW 32.2 km/h 32.2 km/h 45 % 0.0 mm 14.0 W/m2 BKN
20:12 25.0 °C 12.2 °C 1020.5 hPa WSW 25.9 km/h 25.9 km/h 45 % 0.0 mm 14.0 W/m2 BKN
20:17 24.4 °C 11.7 °C 1020.5 hPa WSW 25.9 km/h 25.9 km/h 45 % 0.0 mm 9.0 W/m2 BKN
20:22 24.4 °C 11.7 °C 1020.5 hPa SW 25.9 km/h 25.9 km/h 45 % 0.0 mm 5.0 W/m2 BKN
20:27 24.4 °C 12.1 °C 1020.5 hPa WSW 19.3 km/h 19.3 km/h 46 % 0.0 mm 0.0 W/m2 OVC
20:32 24.4 °C 12.1 °C 1020.5 hPa SW 29.6 km/h 29.6 km/h 46 % 0.0 mm 0.0 W/m2 OVC
20:37 23.9 °C 11.9 °C 1020.5 hPa WSW 27.8 km/h 27.8 km/h 47 % 0.0 mm 0.0 W/m2 CLR
20:42 23.9 °C 12.2 °C 1020.9 hPa WSW 38.9 km/h 38.9 km/h 48 % 0.0 mm 0.0 W/m2 CLR
20:47 23.9 °C 12.5 °C 1020.9 hPa SW 33.3 km/h 33.3 km/h 49 % 0.0 mm 0.0 W/m2 CLR
20:52 23.3 °C 12.0 °C 1020.9 hPa SW 31.5 km/h 31.5 km/h 49 % 0.0 mm 0.0 W/m2 CLR
20:57 23.3 °C 12.0 °C 1020.9 hPa WSW 31.5 km/h 31.5 km/h 49 % 0.0 mm 0.0 W/m2 CLR
21:02 23.3 °C 12.3 °C 1021.2 hPa WSW 35.4 km/h 35.4 km/h 50 % 0.0 mm 0.0 W/m2 CLR
21:07 22.8 °C 11.8 °C 1021.2 hPa WSW 35.2 km/h 35.2 km/h 50 % 0.0 mm 0.0 W/m2 CLR
21:12 22.8 °C 12.1 °C 1021.2 hPa WSW 29.6 km/h 29.6 km/h 51 % 0.0 mm 0.0 W/m2 CLR
21:17 22.2 °C 12.2 °C 1021.6 hPa WSW 32.2 km/h 32.2 km/h 53 % 0.0 mm 0.0 W/m2 CLR
21:22 22.2 °C 12.2 °C 1021.6 hPa WSW 25.9 km/h 25.9 km/h 53 % 0.0 mm 0.0 W/m2 CLR
21:27 22.2 °C 12.4 °C 1021.9 hPa SSW 25.9 km/h 25.9 km/h 54 % 0.0 mm 0.0 W/m2 CLR
21:32 21.7 °C 11.9 °C 1021.9 hPa WSW 27.8 km/h 27.8 km/h 54 % 0.0 mm 0.0 W/m2 CLR
21:37 21.7 °C 12.2 °C 1021.9 hPa WSW 31.5 km/h 31.5 km/h 55 % 0.0 mm 0.0 W/m2 CLR
21:42 21.7 °C 12.2 °C 1021.9 hPa WSW 18.5 km/h 18.5 km/h 55 % 0.0 mm 0.0 W/m2 CLR
21:47 21.7 °C 12.2 °C 1022.2 hPa SSW 40.7 km/h 40.7 km/h 55 % 0.0 mm 0.0 W/m2 CLR
21:52 21.7 °C 12.2 °C 1022.2 hPa SW 35.2 km/h 35.2 km/h 55 % 0.0 mm 0.0 W/m2 CLR
21:57 21.7 °C 12.2 °C 1022.2 hPa SW 24.1 km/h 24.1 km/h 55 % 0.0 mm 0.0 W/m2 CLR
22:02 21.1 °C 11.7 °C 1022.2 hPa WSW 27.8 km/h 27.8 km/h 55 % 0.0 mm 0.0 W/m2 CLR
22:07 21.1 °C 11.7 °C 1022.2 hPa SW 35.2 km/h 35.2 km/h 55 % 0.0 mm 0.0 W/m2 CLR
22:12 21.1 °C 11.7 °C 1022.2 hPa WSW 31.5 km/h 31.5 km/h 55 % 0.0 mm 0.0 W/m2 CLR
22:17 21.1 °C 11.7 °C 1022.6 hPa SW 38.9 km/h 38.9 km/h 55 % 0.0 mm 0.0 W/m2 CLR
22:22 20.6 °C 11.2 °C 1022.6 hPa SW 27.8 km/h 27.8 km/h 55 % 0.0 mm 0.0 W/m2 CLR
22:27 20.6 °C 11.4 °C 1022.6 hPa SSW 22.2 km/h 22.2 km/h 56 % 0.0 mm 0.0 W/m2 CLR
22:32 20.6 °C 11.4 °C 1022.6 hPa SSE 24.1 km/h 24.1 km/h 56 % 0.0 mm 0.0 W/m2 CLR
22:37 20.6 °C 11.4 °C 1022.6 hPa SSW 25.7 km/h 25.7 km/h 56 % 0.0 mm 0.0 W/m2 CLR
22:42 20.6 °C 11.4 °C 1022.6 hPa SSE 27.8 km/h 27.8 km/h 56 % 0.0 mm 0.0 W/m2 CLR
22:47 20.6 °C 11.4 °C 1022.6 hPa SSW 24.1 km/h 24.1 km/h 56 % 0.0 mm 0.0 W/m2 CLR
22:52 20.0 °C 10.9 °C 1022.9 hPa SSW 6.4 km/h 6.4 km/h 56 % 0.0 mm 0.0 W/m2 CLR
22:57 20.0 °C 10.9 °C 1022.9 hPa SSW 16.7 km/h 16.7 km/h 56 % 0.0 mm 0.0 W/m2 CLR
23:02 20.0 °C 10.9 °C 1022.9 hPa SSW 20.4 km/h 20.4 km/h 56 % 0.0 mm 0.0 W/m2 CLR
23:07 20.0 °C 10.9 °C 1022.9 hPa Calm   2.3 km/h 56 % 0.0 mm 0.0 W/m2 CLR
23:12 19.4 °C 10.4 °C 1022.9 hPa South 22.2 km/h 22.2 km/h 56 % 0.0 mm 0.0 W/m2 CLR
23:17 19.4 °C 10.7 °C 1023.2 hPa SSW 16.7 km/h 16.7 km/h 57 % 0.0 mm 0.0 W/m2 CLR
23:22 19.4 °C 10.7 °C 1023.2 hPa SSW 14.8 km/h 14.8 km/h 57 % 0.0 mm 0.0 W/m2 CLR
23:27 19.4 °C 10.7 °C 1023.2 hPa SSW 5.6 km/h 5.6 km/h 57 % 0.0 mm 0.0 W/m2 CLR
23:32 19.4 °C 10.7 °C 1023.2 hPa SSW 6.4 km/h 6.4 km/h 57 % 0.0 mm 0.0 W/m2 CLR
23:37 18.9 °C 10.4 °C 1023.2 hPa SSW 20.4 km/h 20.4 km/h 58 % 0.0 mm 0.0 W/m2 CLR
23:42 18.9 °C 10.4 °C 1023.2 hPa SSW 22.5 km/h 22.5 km/h 58 % 0.0 mm 0.0 W/m2 CLR
23:47 18.9 °C 10.4 °C 1023.2 hPa SSW 20.4 km/h 20.4 km/h 58 % 0.0 mm 0.0 W/m2 CLR
23:52 18.9 °C 10.7 °C 1023.2 hPa South 16.7 km/h 16.7 km/h 59 % 0.0 mm 0.0 W/m2 CLR
23:57 18.9 °C 10.7 °C 1023.2 hPa SW 20.4 km/h 20.4 km/h 59 % 0.0 mm 0.0 W/m2 CLR
Lo Temps de Massalio
Compliments of Weather Underground - 1.25 mb